sensor_id;sensor_type;location;lat;lon;timestamp;temperature;humidity
62573;DHT22;48626;51.678;5.806;2023-09-19T00:01:07;15.50;99.90
62573;DHT22;48626;51.678;5.806;2023-09-19T00:03:34;15.60;99.90
62573;DHT22;48626;51.678;5.806;2023-09-19T00:06:03;15.60;99.90
62573;DHT22;48626;51.678;5.806;2023-09-19T00:08:30;15.60;99.90
62573;DHT22;48626;51.678;5.806;2023-09-19T00:10:56;15.60;99.90
62573;DHT22;48626;51.678;5.806;2023-09-19T00:13:29;15.60;99.90
62573;DHT22;48626;51.678;5.806;2023-09-19T00:15:56;15.50;99.90
62573;DHT22;48626;51.678;5.806;2023-09-19T00:18:25;15.50;99.90
62573;DHT22;48626;51.678;5.806;2023-09-19T00:20:58;15.40;99.90
62573;DHT22;48626;51.678;5.806;2023-09-19T00:23:24;15.40;99.90
62573;DHT22;48626;51.678;5.806;2023-09-19T00:25:50;15.30;99.90
62573;DHT22;48626;51.678;5.806;2023-09-19T00:28:16;15.20;99.90
62573;DHT22;48626;51.678;5.806;2023-09-19T00:30:44;15.20;99.90
62573;DHT22;48626;51.678;5.806;2023-09-19T00:33:11;15.10;99.90
62573;DHT22;48626;51.678;5.806;2023-09-19T00:35:50;15.10;99.90
62573;DHT22;48626;51.678;5.806;2023-09-19T00:38:16;15.10;99.90
62573;DHT22;48626;51.678;5.806;2023-09-19T00:40:46;15.00;99.90
62573;DHT22;48626;51.678;5.806;2023-09-19T00:43:12;15.00;99.90
62573;DHT22;48626;51.678;5.806;2023-09-19T00:45:38;14.90;99.90
62573;DHT22;48626;51.678;5.806;2023-09-19T00:48:04;14.90;99.90
62573;DHT22;48626;51.678;5.806;2023-09-19T00:50:35;14.90;99.90
62573;DHT22;48626;51.678;5.806;2023-09-19T00:53:01;14.90;99.90
62573;DHT22;48626;51.678;5.806;2023-09-19T00:55:33;14.90;99.90
62573;DHT22;48626;51.678;5.806;2023-09-19T00:58:00;14.80;99.90
62573;DHT22;48626;51.678;5.806;2023-09-19T01:00:26;14.80;99.90
62573;DHT22;48626;51.678;5.806;2023-09-19T01:02:52;14.80;99.90
62573;DHT22;48626;51.678;5.806;2023-09-19T01:05:18;14.80;99.90
62573;DHT22;48626;51.678;5.806;2023-09-19T01:07:44;14.80;99.90
62573;DHT22;48626;51.678;5.806;2023-09-19T01:10:15;14.80;99.90
62573;DHT22;48626;51.678;5.806;2023-09-19T01:15:28;14.80;99.90
62573;DHT22;48626;51.678;5.806;2023-09-19T01:23:29;14.80;99.90
62573;DHT22;48626;51.678;5.806;2023-09-19T01:28:53;14.80;99.90
62573;DHT22;48626;51.678;5.806;2023-09-19T01:31:21;14.80;99.90
62573;DHT22;48626;51.678;5.806;2023-09-19T01:34:02;14.80;99.90
62573;DHT22;48626;51.678;5.806;2023-09-19T01:36:35;14.90;99.90
62573;DHT22;48626;51.678;5.806;2023-09-19T01:39:04;14.90;99.90
62573;DHT22;48626;51.678;5.806;2023-09-19T01:41:58;14.90;99.90
62573;DHT22;48626;51.678;5.806;2023-09-19T01:47:34;14.80;99.90
62573;DHT22;48626;51.678;5.806;2023-09-19T01:50:22;14.80;99.90
62573;DHT22;48626;51.678;5.806;2023-09-19T01:53:05;14.70;99.90
62573;DHT22;48626;51.678;5.806;2023-09-19T01:55:39;14.70;99.90
62573;DHT22;48626;51.678;5.806;2023-09-19T02:00:42;14.60;99.90
62573;DHT22;48626;51.678;5.806;2023-09-19T02:03:11;14.60;99.90
62573;DHT22;48626;51.678;5.806;2023-09-19T02:05:37;14.50;99.90
62573;DHT22;48626;51.678;5.806;2023-09-19T02:08:04;14.50;99.90
62573;DHT22;48626;51.678;5.806;2023-09-19T02:10:30;14.50;99.90
62573;DHT22;48626;51.678;5.806;2023-09-19T02:12:56;14.50;99.90
62573;DHT22;48626;51.678;5.806;2023-09-19T02:15:22;14.50;99.90
62573;DHT22;48626;51.678;5.806;2023-09-19T02:17:48;14.50;99.90
62573;DHT22;48626;51.678;5.806;2023-09-19T02:20:14;14.40;99.90
62573;DHT22;48626;51.678;5.806;2023-09-19T02:22:44;14.40;99.90
62573;DHT22;48626;51.678;5.806;2023-09-19T02:25:10;14.40;99.90
62573;DHT22;48626;51.678;5.806;2023-09-19T02:27:36;14.40;99.90
62573;DHT22;48626;51.678;5.806;2023-09-19T02:30:03;14.40;99.90
62573;DHT22;48626;51.678;5.806;2023-09-19T02:32:29;14.40;99.90
62573;DHT22;48626;51.678;5.806;2023-09-19T02:34:57;14.30;99.90
62573;DHT22;48626;51.678;5.806;2023-09-19T02:37:23;14.30;99.90
62573;DHT22;48626;51.678;5.806;2023-09-19T02:39:49;14.30;99.90
62573;DHT22;48626;51.678;5.806;2023-09-19T02:42:15;14.20;99.90
62573;DHT22;48626;51.678;5.806;2023-09-19T02:44:40;14.20;99.90
62573;DHT22;48626;51.678;5.806;2023-09-19T02:47:06;14.20;99.90
62573;DHT22;48626;51.678;5.806;2023-09-19T02:49:32;14.20;99.90
62573;DHT22;48626;51.678;5.806;2023-09-19T02:51:58;14.10;99.90
62573;DHT22;48626;51.678;5.806;2023-09-19T02:54:27;14.10;99.90
62573;DHT22;48626;51.678;5.806;2023-09-19T02:56:53;14.00;99.90
62573;DHT22;48626;51.678;5.806;2023-09-19T02:59:19;14.00;99.90
62573;DHT22;48626;51.678;5.806;2023-09-19T03:01:45;14.00;99.90
62573;DHT22;48626;51.678;5.806;2023-09-19T03:04:14;13.90;99.90
62573;DHT22;48626;51.678;5.806;2023-09-19T03:06:42;13.90;99.90
62573;DHT22;48626;51.678;5.806;2023-09-19T03:09:09;13.90;99.90
62573;DHT22;48626;51.678;5.806;2023-09-19T03:11:39;13.90;99.90
62573;DHT22;48626;51.678;5.806;2023-09-19T03:14:05;13.90;99.90
62573;DHT22;48626;51.678;5.806;2023-09-19T03:16:31;13.80;99.90
62573;DHT22;48626;51.678;5.806;2023-09-19T03:18:57;13.80;99.90
62573;DHT22;48626;51.678;5.806;2023-09-19T03:21:25;13.80;99.90
62573;DHT22;48626;51.678;5.806;2023-09-19T03:23:51;13.80;99.90
62573;DHT22;48626;51.678;5.806;2023-09-19T03:26:16;13.80;99.90
62573;DHT22;48626;51.678;5.806;2023-09-19T03:28:42;13.80;99.90
62573;DHT22;48626;51.678;5.806;2023-09-19T03:31:09;13.80;99.90
62573;DHT22;48626;51.678;5.806;2023-09-19T03:33:34;13.80;99.90
62573;DHT22;48626;51.678;5.806;2023-09-19T03:36:01;13.80;99.90
62573;DHT22;48626;51.678;5.806;2023-09-19T03:38:30;13.80;99.90
62573;DHT22;48626;51.678;5.806;2023-09-19T03:40:55;13.70;99.90
62573;DHT22;48626;51.678;5.806;2023-09-19T03:43:21;13.70;99.90
62573;DHT22;48626;51.678;5.806;2023-09-19T03:45:47;13.80;99.90
62573;DHT22;48626;51.678;5.806;2023-09-19T03:48:14;13.80;99.90
62573;DHT22;48626;51.678;5.806;2023-09-19T03:50:40;13.80;99.90
62573;DHT22;48626;51.678;5.806;2023-09-19T03:53:05;13.80;99.90
62573;DHT22;48626;51.678;5.806;2023-09-19T03:55:33;13.80;99.90
62573;DHT22;48626;51.678;5.806;2023-09-19T03:58:01;13.80;99.90
62573;DHT22;48626;51.678;5.806;2023-09-19T04:00:27;13.80;99.90
62573;DHT22;48626;51.678;5.806;2023-09-19T04:02:54;13.70;99.90
62573;DHT22;48626;51.678;5.806;2023-09-19T04:05:22;13.80;99.90
62573;DHT22;48626;51.678;5.806;2023-09-19T04:07:48;13.70;99.90
62573;DHT22;48626;51.678;5.806;2023-09-19T04:10:14;13.70;99.90
62573;DHT22;48626;51.678;5.806;2023-09-19T04:12:53;13.70;99.90
62573;DHT22;48626;51.678;5.806;2023-09-19T04:15:20;13.70;99.90
62573;DHT22;48626;51.678;5.806;2023-09-19T04:17:48;13.70;99.90
62573;DHT22;48626;51.678;5.806;2023-09-19T04:20:13;13.70;99.90
62573;DHT22;48626;51.678;5.806;2023-09-19T04:22:39;13.70;99.90
62573;DHT22;48626;51.678;5.806;2023-09-19T04:25:05;13.70;99.90
62573;DHT22;48626;51.678;5.806;2023-09-19T04:27:32;13.70;99.90
62573;DHT22;48626;51.678;5.806;2023-09-19T04:29:58;13.70;99.90
62573;DHT22;48626;51.678;5.806;2023-09-19T04:32:28;13.70;99.90
62573;DHT22;48626;51.678;5.806;2023-09-19T04:34:54;13.60;99.90
62573;DHT22;48626;51.678;5.806;2023-09-19T04:37:20;13.60;99.90
62573;DHT22;48626;51.678;5.806;2023-09-19T04:39:47;13.60;99.90
62573;DHT22;48626;51.678;5.806;2023-09-19T04:42:13;13.60;99.90
62573;DHT22;48626;51.678;5.806;2023-09-19T04:44:40;13.60;99.90
62573;DHT22;48626;51.678;5.806;2023-09-19T04:47:05;13.60;99.90
62573;DHT22;48626;51.678;5.806;2023-09-19T04:49:31;13.60;99.90
62573;DHT22;48626;51.678;5.806;2023-09-19T04:51:57;13.70;99.90
62573;DHT22;48626;51.678;5.806;2023-09-19T04:54:22;13.60;99.90
62573;DHT22;48626;51.678;5.806;2023-09-19T04:56:48;13.70;99.90
62573;DHT22;48626;51.678;5.806;2023-09-19T04:59:14;13.70;99.90
62573;DHT22;48626;51.678;5.806;2023-09-19T05:01:41;13.70;99.90
62573;DHT22;48626;51.678;5.806;2023-09-19T05:04:06;13.80;99.90
62573;DHT22;48626;51.678;5.806;2023-09-19T05:06:32;13.90;99.90
62573;DHT22;48626;51.678;5.806;2023-09-19T05:08:59;14.00;99.90
62573;DHT22;48626;51.678;5.806;2023-09-19T05:11:25;14.00;99.90
62573;DHT22;48626;51.678;5.806;2023-09-19T05:13:51;14.00;99.90
62573;DHT22;48626;51.678;5.806;2023-09-19T05:16:18;14.00;99.90
62573;DHT22;48626;51.678;5.806;2023-09-19T05:18:44;13.90;99.90
62573;DHT22;48626;51.678;5.806;2023-09-19T05:21:09;13.90;99.90
62573;DHT22;48626;51.678;5.806;2023-09-19T05:23:35;13.90;99.90
62573;DHT22;48626;51.678;5.806;2023-09-19T05:26:02;13.90;99.90
62573;DHT22;48626;51.678;5.806;2023-09-19T05:28:29;13.80;99.90
62573;DHT22;48626;51.678;5.806;2023-09-19T05:30:55;13.80;99.90
62573;DHT22;48626;51.678;5.806;2023-09-19T05:33:20;13.80;99.90
62573;DHT22;48626;51.678;5.806;2023-09-19T05:35:48;13.90;99.90
62573;DHT22;48626;51.678;5.806;2023-09-19T05:38:14;13.90;99.90
62573;DHT22;48626;51.678;5.806;2023-09-19T05:40:41;13.90;99.90
62573;DHT22;48626;51.678;5.806;2023-09-19T05:43:08;13.90;99.90
62573;DHT22;48626;51.678;5.806;2023-09-19T05:45:34;13.90;99.90
62573;DHT22;48626;51.678;5.806;2023-09-19T05:48:12;13.90;99.90
62573;DHT22;48626;51.678;5.806;2023-09-19T05:50:41;13.90;99.90
62573;DHT22;48626;51.678;5.806;2023-09-19T05:53:08;13.90;99.90
62573;DHT22;48626;51.678;5.806;2023-09-19T05:55:35;14.00;99.90
62573;DHT22;48626;51.678;5.806;2023-09-19T05:58:01;13.90;99.90
62573;DHT22;48626;51.678;5.806;2023-09-19T06:00:28;14.00;99.90
62573;DHT22;48626;51.678;5.806;2023-09-19T06:02:56;14.00;99.90
62573;DHT22;48626;51.678;5.806;2023-09-19T06:05:23;14.00;99.90
62573;DHT22;48626;51.678;5.806;2023-09-19T06:07:49;14.00;99.90
62573;DHT22;48626;51.678;5.806;2023-09-19T06:10:16;14.10;99.90
62573;DHT22;48626;51.678;5.806;2023-09-19T06:12:43;14.10;99.90
62573;DHT22;48626;51.678;5.806;2023-09-19T06:15:13;14.10;99.90
62573;DHT22;48626;51.678;5.806;2023-09-19T06:17:51;14.10;99.90
62573;DHT22;48626;51.678;5.806;2023-09-19T06:20:17;14.20;99.90
62573;DHT22;48626;51.678;5.806;2023-09-19T06:22:44;14.20;99.90
62573;DHT22;48626;51.678;5.806;2023-09-19T06:25:12;14.30;99.90
62573;DHT22;48626;51.678;5.806;2023-09-19T06:27:51;14.30;99.90
62573;DHT22;48626;51.678;5.806;2023-09-19T06:30:21;14.30;99.90
62573;DHT22;48626;51.678;5.806;2023-09-19T06:32:48;14.30;99.90
62573;DHT22;48626;51.678;5.806;2023-09-19T06:35:15;14.40;99.90
62573;DHT22;48626;51.678;5.806;2023-09-19T06:37:41;14.40;99.90
62573;DHT22;48626;51.678;5.806;2023-09-19T06:40:11;14.50;99.90
62573;DHT22;48626;51.678;5.806;2023-09-19T06:42:51;14.50;99.90
62573;DHT22;48626;51.678;5.806;2023-09-19T06:45:18;14.50;99.90
62573;DHT22;48626;51.678;5.806;2023-09-19T06:47:48;14.60;99.90
62573;DHT22;48626;51.678;5.806;2023-09-19T06:50:17;14.60;99.90
62573;DHT22;48626;51.678;5.806;2023-09-19T06:52:45;14.70;99.90
62573;DHT22;48626;51.678;5.806;2023-09-19T06:55:14;14.70;99.90
62573;DHT22;48626;51.678;5.806;2023-09-19T06:57:42;14.80;99.90
62573;DHT22;48626;51.678;5.806;2023-09-19T07:00:10;14.80;99.90
62573;DHT22;48626;51.678;5.806;2023-09-19T07:02:43;14.90;99.90
62573;DHT22;48626;51.678;5.806;2023-09-19T07:05:09;14.90;99.90
62573;DHT22;48626;51.678;5.806;2023-09-19T07:07:35;14.90;99.90
62573;DHT22;48626;51.678;5.806;2023-09-19T07:10:02;15.00;99.90
62573;DHT22;48626;51.678;5.806;2023-09-19T07:12:28;15.00;99.90
62573;DHT22;48626;51.678;5.806;2023-09-19T07:14:53;15.10;99.90
62573;DHT22;48626;51.678;5.806;2023-09-19T07:17:20;15.10;99.90
62573;DHT22;48626;51.678;5.806;2023-09-19T07:19:46;15.10;99.90
62573;DHT22;48626;51.678;5.806;2023-09-19T07:22:13;15.10;99.90
62573;DHT22;48626;51.678;5.806;2023-09-19T07:24:39;15.20;99.90
62573;DHT22;48626;51.678;5.806;2023-09-19T07:27:04;15.20;99.90
62573;DHT22;48626;51.678;5.806;2023-09-19T07:29:30;15.20;99.90
62573;DHT22;48626;51.678;5.806;2023-09-19T07:31:56;15.30;99.90
62573;DHT22;48626;51.678;5.806;2023-09-19T07:34:22;15.40;99.90
62573;DHT22;48626;51.678;5.806;2023-09-19T07:36:49;15.40;99.90
62573;DHT22;48626;51.678;5.806;2023-09-19T07:39:15;15.40;99.90
62573;DHT22;48626;51.678;5.806;2023-09-19T07:41:41;15.50;99.90
62573;DHT22;48626;51.678;5.806;2023-09-19T07:44:07;15.50;99.90
62573;DHT22;48626;51.678;5.806;2023-09-19T07:46:35;15.60;99.90
62573;DHT22;48626;51.678;5.806;2023-09-19T07:49:01;15.60;99.90
62573;DHT22;48626;51.678;5.806;2023-09-19T07:51:27;15.60;99.90
62573;DHT22;48626;51.678;5.806;2023-09-19T07:53:53;15.70;99.90
62573;DHT22;48626;51.678;5.806;2023-09-19T07:56:20;15.80;99.90
62573;DHT22;48626;51.678;5.806;2023-09-19T07:58:46;15.90;99.90
62573;DHT22;48626;51.678;5.806;2023-09-19T08:01:12;16.00;99.90
62573;DHT22;48626;51.678;5.806;2023-09-19T08:03:39;16.10;99.90
62573;DHT22;48626;51.678;5.806;2023-09-19T08:06:06;16.30;99.90
62573;DHT22;48626;51.678;5.806;2023-09-19T08:08:33;16.40;99.90
62573;DHT22;48626;51.678;5.806;2023-09-19T08:11:06;16.50;99.90
62573;DHT22;48626;51.678;5.806;2023-09-19T08:13:40;16.70;99.90
62573;DHT22;48626;51.678;5.806;2023-09-19T08:16:12;16.70;99.90
62573;DHT22;48626;51.678;5.806;2023-09-19T08:18:38;16.80;99.90
62573;DHT22;48626;51.678;5.806;2023-09-19T08:21:07;16.90;99.90
62573;DHT22;48626;51.678;5.806;2023-09-19T08:23:38;17.00;99.90
62573;DHT22;48626;51.678;5.806;2023-09-19T08:26:05;17.10;99.90
62573;DHT22;48626;51.678;5.806;2023-09-19T08:28:34;17.10;99.90
62573;DHT22;48626;51.678;5.806;2023-09-19T08:31:04;17.20;99.90
62573;DHT22;48626;51.678;5.806;2023-09-19T08:33:34;17.30;99.90
62573;DHT22;48626;51.678;5.806;2023-09-19T08:36:01;17.40;99.90
62573;DHT22;48626;51.678;5.806;2023-09-19T08:38:33;17.50;99.90
62573;DHT22;48626;51.678;5.806;2023-09-19T08:41:06;17.50;99.90
62573;DHT22;48626;51.678;5.806;2023-09-19T08:43:32;17.60;99.90
62573;DHT22;48626;51.678;5.806;2023-09-19T08:48:32;17.70;99.90
62573;DHT22;48626;51.678;5.806;2023-09-19T08:51:07;17.70;99.90
62573;DHT22;48626;51.678;5.806;2023-09-19T08:53:42;17.80;99.90
62573;DHT22;48626;51.678;5.806;2023-09-19T08:56:13;17.80;99.90
62573;DHT22;48626;51.678;5.806;2023-09-19T08:59:03;17.90;99.90
62573;DHT22;48626;51.678;5.806;2023-09-19T09:01:29;18.00;99.90
62573;DHT22;48626;51.678;5.806;2023-09-19T09:03:58;18.10;99.90
62573;DHT22;48626;51.678;5.806;2023-09-19T09:06:25;18.20;99.90
62573;DHT22;48626;51.678;5.806;2023-09-19T09:08:51;18.30;99.90
62573;DHT22;48626;51.678;5.806;2023-09-19T09:11:18;18.40;99.90
62573;DHT22;48626;51.678;5.806;2023-09-19T09:13:45;18.40;99.90
62573;DHT22;48626;51.678;5.806;2023-09-19T09:16:11;18.40;99.90
62573;DHT22;48626;51.678;5.806;2023-09-19T09:18:38;18.60;99.90
62573;DHT22;48626;51.678;5.806;2023-09-19T09:21:04;19.00;99.90
62573;DHT22;48626;51.678;5.806;2023-09-19T09:23:30;19.30;99.90
62573;DHT22;48626;51.678;5.806;2023-09-19T09:25:58;19.40;99.90
62573;DHT22;48626;51.678;5.806;2023-09-19T09:28:33;19.30;99.90
62573;DHT22;48626;51.678;5.806;2023-09-19T09:31:00;19.30;99.90
62573;DHT22;48626;51.678;5.806;2023-09-19T09:33:34;19.20;99.90
62573;DHT22;48626;51.678;5.806;2023-09-19T09:36:01;19.30;99.90
62573;DHT22;48626;51.678;5.806;2023-09-19T09:38:45;19.40;99.90
62573;DHT22;48626;51.678;5.806;2023-09-19T09:41:11;19.50;99.90
62573;DHT22;48626;51.678;5.806;2023-09-19T09:43:58;19.60;99.90
62573;DHT22;48626;51.678;5.806;2023-09-19T09:46:42;19.70;99.90
62573;DHT22;48626;51.678;5.806;2023-09-19T09:49:24;19.90;99.90
62573;DHT22;48626;51.678;5.806;2023-09-19T09:52:05;20.00;99.90
62573;DHT22;48626;51.678;5.806;2023-09-19T09:54:58;20.10;99.90
62573;DHT22;48626;51.678;5.806;2023-09-19T09:57:25;20.30;99.90
62573;DHT22;48626;51.678;5.806;2023-09-19T09:59:59;20.30;99.90
62573;DHT22;48626;51.678;5.806;2023-09-19T10:02:44;20.50;99.90
62573;DHT22;48626;51.678;5.806;2023-09-19T10:05:18;20.60;99.90
62573;DHT22;48626;51.678;5.806;2023-09-19T10:07:44;20.70;99.90
62573;DHT22;48626;51.678;5.806;2023-09-19T10:10:30;21.00;99.90
62573;DHT22;48626;51.678;5.806;2023-09-19T10:13:05;21.20;99.90
62573;DHT22;48626;51.678;5.806;2023-09-19T10:15:33;21.40;99.90
62573;DHT22;48626;51.678;5.806;2023-09-19T10:18:04;21.40;99.90
62573;DHT22;48626;51.678;5.806;2023-09-19T10:20:30;21.30;99.90
62573;DHT22;48626;51.678;5.806;2023-09-19T10:22:56;21.30;99.90
62573;DHT22;48626;51.678;5.806;2023-09-19T10:25:29;21.50;99.90
62573;DHT22;48626;51.678;5.806;2023-09-19T10:28:00;21.40;99.90
62573;DHT22;48626;51.678;5.806;2023-09-19T10:30:31;21.70;99.90
62573;DHT22;48626;51.678;5.806;2023-09-19T10:33:04;21.60;99.90
62573;DHT22;48626;51.678;5.806;2023-09-19T10:35:32;21.40;99.90
62573;DHT22;48626;51.678;5.806;2023-09-19T10:38:01;21.70;99.90
62573;DHT22;48626;51.678;5.806;2023-09-19T10:40:29;21.60;99.90
62573;DHT22;48626;51.678;5.806;2023-09-19T10:43:03;21.50;99.90
62573;DHT22;48626;51.678;5.806;2023-09-19T10:45:34;21.80;99.90
62573;DHT22;48626;51.678;5.806;2023-09-19T10:48:01;22.30;99.90
62573;DHT22;48626;51.678;5.806;2023-09-19T10:50:33;22.70;99.90
62573;DHT22;48626;51.678;5.806;2023-09-19T10:53:01;22.90;99.90
62573;DHT22;48626;51.678;5.806;2023-09-19T10:55:31;23.30;99.90
62573;DHT22;48626;51.678;5.806;2023-09-19T10:57:58;23.50;99.90
62573;DHT22;48626;51.678;5.806;2023-09-19T11:00:26;23.90;99.90
62573;DHT22;48626;51.678;5.806;2023-09-19T11:06:07;24.70;99.90
62573;DHT22;48626;51.678;5.806;2023-09-19T11:11:42;24.50;99.90
62573;DHT22;48626;51.678;5.806;2023-09-19T11:14:29;24.50;99.90
62573;DHT22;48626;51.678;5.806;2023-09-19T11:30:44;24.60;99.90
62573;DHT22;48626;51.678;5.806;2023-09-19T11:36:11;25.50;99.90
62573;DHT22;48626;51.678;5.806;2023-09-19T11:43:51;26.30;99.90
62573;DHT22;48626;51.678;5.806;2023-09-19T11:46:18;26.60;99.90
62573;DHT22;48626;51.678;5.806;2023-09-19T11:48:50;26.90;99.90
62573;DHT22;48626;51.678;5.806;2023-09-19T11:53:48;27.30;99.90
62573;DHT22;48626;51.678;5.806;2023-09-19T11:56:20;27.80;99.90
62573;DHT22;48626;51.678;5.806;2023-09-19T11:58:54;28.50;99.90
62573;DHT22;48626;51.678;5.806;2023-09-19T12:01:33;29.20;99.90
62573;DHT22;48626;51.678;5.806;2023-09-19T12:04:02;28.80;99.90
62573;DHT22;48626;51.678;5.806;2023-09-19T12:06:30;27.90;99.90
62573;DHT22;48626;51.678;5.806;2023-09-19T12:08:57;27.40;99.90
62573;DHT22;48626;51.678;5.806;2023-09-19T12:11:30;27.10;99.90
62573;DHT22;48626;51.678;5.806;2023-09-19T12:14:01;27.00;99.90
62573;DHT22;48626;51.678;5.806;2023-09-19T12:16:28;26.90;99.90
62573;DHT22;48626;51.678;5.806;2023-09-19T12:18:56;26.90;99.90
62573;DHT22;48626;51.678;5.806;2023-09-19T12:21:30;27.20;99.90
62573;DHT22;48626;51.678;5.806;2023-09-19T12:24:04;27.20;99.90
62573;DHT22;48626;51.678;5.806;2023-09-19T12:26:37;27.80;99.90
62573;DHT22;48626;51.678;5.806;2023-09-19T12:29:03;27.80;99.90
62573;DHT22;48626;51.678;5.806;2023-09-19T12:31:30;27.20;99.90
62573;DHT22;48626;51.678;5.806;2023-09-19T12:34:01;27.20;99.90
62573;DHT22;48626;51.678;5.806;2023-09-19T12:36:27;27.10;99.90
62573;DHT22;48626;51.678;5.806;2023-09-19T12:38:59;26.70;99.90
62573;DHT22;48626;51.678;5.806;2023-09-19T12:41:25;26.70;99.90
62573;DHT22;48626;51.678;5.806;2023-09-19T12:43:55;26.40;99.90
62573;DHT22;48626;51.678;5.806;2023-09-19T12:46:23;25.90;99.90
62573;DHT22;48626;51.678;5.806;2023-09-19T12:51:48;24.90;99.90
62573;DHT22;48626;51.678;5.806;2023-09-19T12:54:17;24.30;99.90
62573;DHT22;48626;51.678;5.806;2023-09-19T12:56:45;23.90;99.90
62573;DHT22;48626;51.678;5.806;2023-09-19T12:59:13;23.60;99.90
62573;DHT22;48626;51.678;5.806;2023-09-19T13:01:43;23.20;99.90
62573;DHT22;48626;51.678;5.806;2023-09-19T13:04:25;23.00;99.90
62573;DHT22;48626;51.678;5.806;2023-09-19T13:06:55;22.80;99.90
62573;DHT22;48626;51.678;5.806;2023-09-19T13:09:27;22.80;99.90
62573;DHT22;48626;51.678;5.806;2023-09-19T13:12:00;22.80;99.90
62573;DHT22;48626;51.678;5.806;2023-09-19T13:14:29;22.90;99.90
62573;DHT22;48626;51.678;5.806;2023-09-19T13:17:06;23.00;99.90
62573;DHT22;48626;51.678;5.806;2023-09-19T13:19:43;23.10;99.90
62573;DHT22;48626;51.678;5.806;2023-09-19T13:22:44;23.30;99.90
62573;DHT22;48626;51.678;5.806;2023-09-19T13:25:21;23.40;99.90
62573;DHT22;48626;51.678;5.806;2023-09-19T13:27:54;23.30;99.90
62573;DHT22;48626;51.678;5.806;2023-09-19T13:30:27;23.10;99.90
62573;DHT22;48626;51.678;5.806;2023-09-19T13:33:10;23.00;99.90
62573;DHT22;48626;51.678;5.806;2023-09-19T13:35:38;22.90;99.90
62573;DHT22;48626;51.678;5.806;2023-09-19T13:38:05;22.80;99.90
62573;DHT22;48626;51.678;5.806;2023-09-19T13:40:34;22.70;99.90
62573;DHT22;48626;51.678;5.806;2023-09-19T13:43:03;22.50;99.90
62573;DHT22;48626;51.678;5.806;2023-09-19T13:45:29;22.40;99.90
62573;DHT22;48626;51.678;5.806;2023-09-19T13:47:56;22.40;99.90
62573;DHT22;48626;51.678;5.806;2023-09-19T13:50:21;22.20;99.90
62573;DHT22;48626;51.678;5.806;2023-09-19T13:52:50;22.20;99.90
62573;DHT22;48626;51.678;5.806;2023-09-19T13:55:17;22.20;99.90
62573;DHT22;48626;51.678;5.806;2023-09-19T13:57:46;22.20;99.90
62573;DHT22;48626;51.678;5.806;2023-09-19T14:00:12;22.30;99.90
62573;DHT22;48626;51.678;5.806;2023-09-19T14:02:41;22.30;99.90
62573;DHT22;48626;51.678;5.806;2023-09-19T14:05:12;22.40;99.90
62573;DHT22;48626;51.678;5.806;2023-09-19T14:07:42;22.50;99.90
62573;DHT22;48626;51.678;5.806;2023-09-19T14:10:09;22.70;99.90
62573;DHT22;48626;51.678;5.806;2023-09-19T14:12:39;22.60;99.90
62573;DHT22;48626;51.678;5.806;2023-09-19T14:15:08;22.60;99.90
62573;DHT22;48626;51.678;5.806;2023-09-19T14:17:34;22.50;99.90
62573;DHT22;48626;51.678;5.806;2023-09-19T14:20:00;22.40;99.90
62573;DHT22;48626;51.678;5.806;2023-09-19T14:22:26;22.40;99.90
62573;DHT22;48626;51.678;5.806;2023-09-19T14:24:53;22.30;99.90
62573;DHT22;48626;51.678;5.806;2023-09-19T14:27:19;22.20;99.90
62573;DHT22;48626;51.678;5.806;2023-09-19T14:29:45;22.20;99.90
62573;DHT22;48626;51.678;5.806;2023-09-19T14:32:11;22.20;99.90
62573;DHT22;48626;51.678;5.806;2023-09-19T14:34:37;22.20;99.90
62573;DHT22;48626;51.678;5.806;2023-09-19T14:37:08;22.10;99.90
62573;DHT22;48626;51.678;5.806;2023-09-19T14:39:34;22.10;99.90
62573;DHT22;48626;51.678;5.806;2023-09-19T14:42:02;22.10;99.90
62573;DHT22;48626;51.678;5.806;2023-09-19T14:44:28;22.10;99.90
62573;DHT22;48626;51.678;5.806;2023-09-19T14:46:54;22.10;99.90
62573;DHT22;48626;51.678;5.806;2023-09-19T14:49:20;22.00;99.90
62573;DHT22;48626;51.678;5.806;2023-09-19T14:51:46;21.90;99.90
62573;DHT22;48626;51.678;5.806;2023-09-19T14:54:16;21.90;99.90
62573;DHT22;48626;51.678;5.806;2023-09-19T14:56:42;21.90;99.90
62573;DHT22;48626;51.678;5.806;2023-09-19T14:59:08;21.90;99.90
62573;DHT22;48626;51.678;5.806;2023-09-19T15:01:36;21.90;99.90
62573;DHT22;48626;51.678;5.806;2023-09-19T15:04:02;21.90;99.90
62573;DHT22;48626;51.678;5.806;2023-09-19T15:06:27;21.90;99.90
62573;DHT22;48626;51.678;5.806;2023-09-19T15:08:53;21.90;99.90
62573;DHT22;48626;51.678;5.806;2023-09-19T15:11:19;21.90;99.90
62573;DHT22;48626;51.678;5.806;2023-09-19T15:13:47;21.90;99.90
62573;DHT22;48626;51.678;5.806;2023-09-19T15:16:13;22.00;99.90
62573;DHT22;48626;51.678;5.806;2023-09-19T15:18:40;22.00;99.90
62573;DHT22;48626;51.678;5.806;2023-09-19T15:21:09;21.90;99.90
62573;DHT22;48626;51.678;5.806;2023-09-19T15:23:36;21.80;99.90
62573;DHT22;48626;51.678;5.806;2023-09-19T15:26:09;21.80;99.90
62573;DHT22;48626;51.678;5.806;2023-09-19T15:28:35;21.80;99.90
62573;DHT22;48626;51.678;5.806;2023-09-19T15:31:01;21.80;99.90
62573;DHT22;48626;51.678;5.806;2023-09-19T15:33:27;21.80;99.90
62573;DHT22;48626;51.678;5.806;2023-09-19T15:36:15;21.80;99.90
62573;DHT22;48626;51.678;5.806;2023-09-19T15:41:34;21.70;99.90
62573;DHT22;48626;51.678;5.806;2023-09-19T15:44:01;21.60;99.90
62573;DHT22;48626;51.678;5.806;2023-09-19T15:46:29;21.50;99.90
62573;DHT22;48626;51.678;5.806;2023-09-19T15:48:56;21.40;99.90
62573;DHT22;48626;51.678;5.806;2023-09-19T15:51:22;21.30;99.90
62573;DHT22;48626;51.678;5.806;2023-09-19T15:53:50;21.20;99.90
62573;DHT22;48626;51.678;5.806;2023-09-19T15:56:17;21.20;99.90
62573;DHT22;48626;51.678;5.806;2023-09-19T15:58:47;21.10;99.90
62573;DHT22;48626;51.678;5.806;2023-09-19T16:01:13;21.00;99.90
62573;DHT22;48626;51.678;5.806;2023-09-19T16:03:42;20.90;99.90
62573;DHT22;48626;51.678;5.806;2023-09-19T16:06:09;20.80;99.90
62573;DHT22;48626;51.678;5.806;2023-09-19T16:08:38;20.80;99.90
62573;DHT22;48626;51.678;5.806;2023-09-19T16:11:04;20.70;99.90
62573;DHT22;48626;51.678;5.806;2023-09-19T16:13:29;20.60;99.90
62573;DHT22;48626;51.678;5.806;2023-09-19T16:15:55;20.60;99.90
62573;DHT22;48626;51.678;5.806;2023-09-19T16:18:20;20.60;99.90
62573;DHT22;48626;51.678;5.806;2023-09-19T16:20:47;20.50;99.90
62573;DHT22;48626;51.678;5.806;2023-09-19T16:23:12;20.50;99.90
62573;DHT22;48626;51.678;5.806;2023-09-19T16:25:38;20.50;99.90
62573;DHT22;48626;51.678;5.806;2023-09-19T16:28:04;20.50;99.90
62573;DHT22;48626;51.678;5.806;2023-09-19T16:30:32;20.50;99.90
62573;DHT22;48626;51.678;5.806;2023-09-19T16:32:59;20.40;99.90
62573;DHT22;48626;51.678;5.806;2023-09-19T16:35:25;20.40;99.90